KVJI/VJI METAR and TAF weather

Enter ICAO airport designator
Station Type Date Time Source
KVJI METAR 2024/06/15 23:15 UTC NOAA

KVJI 152315Z AUTO 07005KT 10SM CLR 28/12 A3009 RMK AO2 T02750116


Station Type Date Time Source
KVJI Decoded METAR 2024/06/15 23:15 UTC NOAA

Abingdon, VA, United States (KVJI) 36-41N 082-02W
Jun 15, 2024 - 07:15 PM EDT / 2024.06.15 2315 UTC
Wind: from the ENE (070 degrees) at 6 MPH (5 KT):0
Visibility: 10 mile(s):0
Sky conditions: clear
Temperature: 81.5 F (27.5 C)
Dew Point: 52.9 F (11.6 C)
Relative Humidity: 37%
Pressure (altimeter): 30.09 in. Hg (1018 hPa)
ob: KVJI 152315Z AUTO 07005KT 10SM CLR 28/12 A3009 RMK AO2 T02750116
cycle: 23

Station Type Date Time Source
KVJI TAF UTC NOAA

Error!

Example: see airport list